createdAt,value
2022-07-27T00:01:17.826Z,100838.54
2022-07-27T00:03:46.861Z,100840.48
2022-07-27T00:06:15.928Z,100847.53
2022-07-27T00:08:44.477Z,100849.83
2022-07-27T00:11:14.027Z,100849.30
2022-07-27T00:13:42.462Z,100851.27
2022-07-27T00:16:11.433Z,100852.19
2022-07-27T00:18:40.068Z,100856.22
2022-07-27T00:21:09.129Z,100862.28
2022-07-27T00:23:37.547Z,100858.05
2022-07-27T00:26:06.040Z,100856.52
2022-07-27T00:28:34.422Z,100857.50
2022-07-27T00:31:02.796Z,100858.26
2022-07-27T00:33:31.221Z,100858.85
2022-07-27T00:35:59.559Z,100861.36
2022-07-27T00:38:27.871Z,100860.84
2022-07-27T00:40:56.517Z,100864.92
2022-07-27T00:43:25.081Z,100871.18
2022-07-27T00:45:53.482Z,100876.83
2022-07-27T00:48:21.829Z,100878.53
2022-07-27T00:50:52.718Z,100887.20
2022-07-27T00:53:21.509Z,100887.73
2022-07-27T00:55:50.112Z,100886.50
2022-07-27T00:58:18.679Z,100889.38
2022-07-27T01:00:47.088Z,100888.53
2022-07-27T01:03:16.459Z,100890.84
2022-07-27T01:05:45.924Z,100889.09
2022-07-27T01:08:15.055Z,100891.05
2022-07-27T01:10:44.327Z,100889.14
2022-07-27T01:13:15.263Z,100886.86
2022-07-27T01:15:44.106Z,100886.15
2022-07-27T01:18:25.705Z,100880.63
2022-07-27T01:20:54.213Z,100886.70
2022-07-27T01:23:23.107Z,100887.14
2022-07-27T01:25:51.756Z,100893.70
2022-07-27T01:28:20.713Z,100896.38
2022-07-27T01:30:49.185Z,100893.73
2022-07-27T01:33:17.801Z,100891.98
2022-07-27T01:35:46.251Z,100893.45
2022-07-27T01:38:14.672Z,100888.17
2022-07-27T01:40:43.027Z,100881.85
2022-07-27T01:43:11.450Z,100885.36
2022-07-27T01:45:40.516Z,100882.55
2022-07-27T01:48:10.094Z,100882.73
2022-07-27T01:50:39.896Z,100883.67
2022-07-27T01:53:54.134Z,100887.77
2022-07-27T01:56:23.508Z,100889.09
2022-07-27T01:58:54.880Z,100892.13
2022-07-27T02:01:23.260Z,100891.88
2022-07-27T02:03:51.826Z,100886.92
2022-07-27T02:06:47.994Z,100886.38
2022-07-27T02:09:17.803Z,100893.44
2022-07-27T02:12:25.741Z,100892.80
2022-07-27T02:18:59.770Z,100889.38
2022-07-27T02:21:33.862Z,100887.48
2022-07-27T02:24:02.283Z,100890.46
2022-07-27T02:26:31.312Z,100893.73
2022-07-27T02:28:59.684Z,100888.51
2022-07-27T02:31:32.930Z,100894.44
2022-07-27T02:34:01.595Z,100890.95
2022-07-27T02:36:30.028Z,100889.95
2022-07-27T02:38:58.766Z,100889.44
2022-07-27T02:41:27.267Z,100887.70
2022-07-27T02:43:55.785Z,100886.95
2022-07-27T02:46:24.285Z,100883.40
2022-07-27T02:48:52.804Z,100886.71
2022-07-27T02:51:21.325Z,100891.09
2022-07-27T02:53:49.884Z,100897.15
2022-07-27T03:00:00.660Z,100891.23
2022-07-27T03:02:29.037Z,100901.11
2022-07-27T03:04:57.411Z,100907.17
2022-07-27T03:07:25.797Z,100910.09
2022-07-27T03:09:54.165Z,100910.90
2022-07-27T03:12:22.843Z,100913.50
2022-07-27T03:14:57.134Z,100912.33
2022-07-27T03:17:25.563Z,100911.25
2022-07-27T03:20:18.702Z,100911.50
2022-07-27T03:22:47.081Z,100916.64
2022-07-27T03:25:15.444Z,100915.27
2022-07-27T03:27:45.250Z,100910.27
2022-07-27T03:30:14.089Z,100907.27
2022-07-27T03:32:42.551Z,100918.55
2022-07-27T03:35:11.037Z,100922.91
2022-07-27T03:37:40.402Z,100928.34
2022-07-27T03:40:10.788Z,100934.30
2022-07-27T03:49:28.427Z,100926.69
2022-07-27T03:51:57.066Z,100923.75
2022-07-27T03:54:25.565Z,100929.55
2022-07-27T03:56:57.393Z,100932.06
2022-07-27T03:59:27.560Z,100933.40
2022-07-27T04:01:56.089Z,100938.48
2022-07-27T04:07:54.919Z,100936.92
2022-07-27T04:10:24.017Z,100939.88
2022-07-27T04:12:54.552Z,100945.55
2022-07-27T04:29:37.190Z,100937.25
2022-07-27T04:32:06.953Z,100938.66
2022-07-27T04:34:35.462Z,100940.63
2022-07-27T04:37:03.885Z,100942.39
2022-07-27T04:39:32.279Z,100940.50
2022-07-27T04:42:00.629Z,100938.54
2022-07-27T04:44:29.099Z,100940.60
2022-07-27T04:46:57.508Z,100935.67
2022-07-27T04:49:25.882Z,100935.14
2022-07-27T04:51:54.330Z,100933.06
2022-07-27T04:54:22.783Z,100934.69
2022-07-27T04:56:51.358Z,100933.02
2022-07-27T04:59:20.406Z,100932.23
2022-07-27T05:01:48.921Z,100931.64
2022-07-27T05:04:17.447Z,100935.42
2022-07-27T05:06:48.527Z,100940.16
2022-07-27T05:09:22.364Z,100937.33
2022-07-27T05:11:51.959Z,100935.71
2022-07-27T05:14:21.825Z,100938.61
2022-07-27T05:16:50.587Z,100930.98
2022-07-27T05:19:19.059Z,100932.94
2022-07-27T05:21:47.482Z,100928.39
2022-07-27T05:24:15.919Z,100928.52
2022-07-27T05:26:46.015Z,100936.87
2022-07-27T05:29:20.154Z,100942.42
2022-07-27T05:31:48.699Z,100940.41
2022-07-27T05:34:17.161Z,100939.13
2022-07-27T05:36:45.628Z,100939.84
2022-07-27T05:39:14.214Z,100938.80
2022-07-27T05:41:42.751Z,100935.26
2022-07-27T05:44:11.435Z,100934.90
2022-07-27T05:46:40.295Z,100932.69
2022-07-27T05:49:08.943Z,100939.88
2022-07-27T05:51:37.876Z,100942.02
2022-07-27T05:54:06.465Z,100945.56
2022-07-27T05:56:35.135Z,100945.94
2022-07-27T05:59:06.966Z,100949.38
2022-07-27T06:01:36.414Z,100950.10
2022-07-27T06:04:05.807Z,100953.47
2022-07-27T06:06:52.938Z,100951.48
2022-07-27T06:09:21.359Z,100956.02
2022-07-27T06:11:49.819Z,100959.33
2022-07-27T06:14:18.355Z,100963.24
2022-07-27T06:16:46.891Z,100965.83
2022-07-27T06:19:15.658Z,100961.95
2022-07-27T06:21:44.417Z,100966.83
2022-07-27T06:24:14.025Z,100965.56
2022-07-27T06:26:42.425Z,100965.80
2022-07-27T06:29:11.203Z,100969.58
2022-07-27T06:31:40.044Z,100969.60
2022-07-27T06:34:11.825Z,100966.29
2022-07-27T06:36:41.868Z,100967.11
2022-07-27T06:39:10.644Z,100970.79
2022-07-27T06:41:39.394Z,100971.16
2022-07-27T06:44:11.341Z,100965.50
2022-07-27T06:46:40.018Z,100972.03
2022-07-27T06:49:08.658Z,100970.65
2022-07-27T06:51:37.710Z,100972.08
2022-07-27T06:54:07.091Z,100974.05
2022-07-27T06:56:35.816Z,100972.55
2022-07-27T06:59:06.030Z,100973.81
2022-07-27T07:01:34.500Z,100969.98
2022-07-27T07:04:03.290Z,100965.59
2022-07-27T07:06:32.120Z,100963.70
2022-07-27T07:09:00.638Z,100959.39
2022-07-27T07:11:29.103Z,100962.26
2022-07-27T07:13:57.502Z,100961.45
2022-07-27T07:16:25.938Z,100964.42
2022-07-27T07:18:54.332Z,100965.29
2022-07-27T07:21:22.776Z,100963.38
2022-07-27T07:23:51.316Z,100961.30
2022-07-27T07:26:19.751Z,100964.02
2022-07-27T07:28:48.322Z,100963.48
2022-07-27T07:31:31.462Z,100967.85
2022-07-27T07:34:00.149Z,100964.02
2022-07-27T07:43:09.996Z,100967.70
2022-07-27T07:45:59.122Z,100972.16
2022-07-27T07:48:31.162Z,100973.69
2022-07-27T07:51:03.213Z,100969.62
2022-07-27T07:53:40.852Z,100973.86
2022-07-27T07:56:14.365Z,100975.11
2022-07-27T07:58:48.877Z,100976.02
2022-07-27T08:01:20.770Z,100975.42
2022-07-27T08:03:53.562Z,100977.59
2022-07-27T08:06:25.395Z,100976.04
2022-07-27T08:08:57.284Z,100974.29
2022-07-27T08:11:29.222Z,100978.62
2022-07-27T08:14:04.524Z,100984.52
2022-07-27T08:16:36.476Z,100981.39
2022-07-27T08:19:09.489Z,100986.98
2022-07-27T08:21:41.542Z,100983.58
2022-07-27T08:24:13.422Z,100978.97
2022-07-27T08:26:45.210Z,100978.10
2022-07-27T08:29:17.236Z,100977.92
2022-07-27T08:31:55.221Z,100977.66
2022-07-27T08:34:28.119Z,100977.09
2022-07-27T08:36:59.884Z,100972.14
2022-07-27T08:40:28.199Z,100974.52
2022-07-27T08:42:24.772Z,100972.72
2022-07-27T08:44:56.770Z,100975.96
2022-07-27T08:47:30.874Z,100980.06
2022-07-27T08:50:04.467Z,100976.58
2022-07-27T08:52:36.922Z,100984.58
2022-07-27T08:55:10.409Z,100983.04
2022-07-27T08:57:42.264Z,100981.32
2022-07-27T09:00:18.863Z,100979.16
2022-07-27T09:02:50.857Z,100980.73
2022-07-27T09:05:22.715Z,100981.49
2022-07-27T09:07:55.054Z,100968.94
2022-07-27T09:10:35.116Z,100972.04
2022-07-27T09:13:22.702Z,100974.66
2022-07-27T09:18:48.438Z,100973.80
2022-07-27T09:21:22.038Z,100971.60
2022-07-27T09:23:55.997Z,100970.30
2022-07-27T09:26:32.626Z,100973.74
2022-07-27T09:29:09.547Z,100973.88
2022-07-27T09:31:47.160Z,100973.19
2022-07-27T09:34:33.367Z,100970.98
2022-07-27T09:37:06.605Z,100975.54
2022-07-27T09:39:39.352Z,100974.69
2022-07-27T09:43:03.485Z,100981.33
2022-07-27T09:45:34.229Z,100976.20
2022-07-27T09:48:17.386Z,100966.60
2022-07-27T09:51:03.677Z,100964.20
2022-07-27T09:53:51.972Z,100959.44
2022-07-27T09:56:28.570Z,100955.98
2022-07-27T09:59:02.239Z,100954.77
2022-07-27T10:01:47.680Z,100950.28
2022-07-27T10:04:21.164Z,100946.89
2022-07-27T10:07:02.727Z,100955.85
2022-07-27T10:09:35.976Z,100960.08
2022-07-27T10:12:09.759Z,100958.52
2022-07-27T10:14:41.776Z,100959.38
2022-07-27T10:17:14.070Z,100963.63
2022-07-27T10:19:50.672Z,100967.86
2022-07-27T10:22:54.405Z,100966.42
2022-07-27T10:25:37.509Z,100963.95
2022-07-27T10:28:17.558Z,100968.12
2022-07-27T10:30:54.270Z,100968.64
2022-07-27T10:33:50.174Z,100970.60
2022-07-27T10:36:50.843Z,100962.50
2022-07-27T10:39:38.397Z,100963.19
2022-07-27T10:42:26.704Z,100962.54
2022-07-27T10:45:01.653Z,100963.15
2022-07-27T10:47:45.880Z,100960.71
2022-07-27T10:50:33.587Z,100959.35
2022-07-27T10:53:11.184Z,100955.63
2022-07-27T10:55:53.286Z,100943.73
2022-07-27T10:58:47.047Z,100939.33
2022-07-27T11:01:24.240Z,100927.50
2022-07-27T11:03:59.325Z,100936.89
2022-07-27T11:06:37.806Z,100930.90
2022-07-27T11:12:07.945Z,100932.27
2022-07-27T11:14:49.600Z,100931.05
2022-07-27T11:17:50.850Z,100934.33
2022-07-27T11:20:16.322Z,100932.62
2022-07-27T11:23:48.632Z,100933.08
2022-07-27T11:25:40.058Z,100929.23
2022-07-27T11:28:11.909Z,100926.55
2022-07-27T11:30:44.170Z,100921.66
2022-07-27T11:33:16.192Z,100922.92
2022-07-27T11:35:55.841Z,100918.48
2022-07-27T11:38:27.762Z,100915.77
2022-07-27T11:41:15.109Z,100907.52
2022-07-27T11:43:51.412Z,100910.36
2022-07-27T11:46:25.701Z,100915.58
2022-07-27T11:49:08.671Z,100912.75
2022-07-27T11:51:43.291Z,100909.40
2022-07-27T11:54:20.138Z,100905.34
2022-07-27T11:56:53.868Z,100910.80
2022-07-27T11:59:28.580Z,100910.88
2022-07-27T12:02:01.872Z,100911.98
2022-07-27T12:04:35.373Z,100914.88
2022-07-27T12:07:11.510Z,100911.91
2022-07-27T12:09:48.980Z,100918.13
2022-07-27T12:12:23.533Z,100914.06
2022-07-27T12:14:57.890Z,100913.16
2022-07-27T12:17:31.753Z,100908.35
2022-07-27T12:20:06.090Z,100911.32
2022-07-27T12:22:40.282Z,100906.71
2022-07-27T12:25:29.942Z,100907.38
2022-07-27T12:28:04.589Z,100908.45
2022-07-27T12:30:38.887Z,100916.25
2022-07-27T12:33:26.347Z,100910.10
2022-07-27T12:35:59.819Z,100906.69
2022-07-27T12:38:41.334Z,100901.69
2022-07-27T12:41:24.536Z,100895.46
2022-07-27T12:44:13.568Z,100901.71
2022-07-27T12:46:59.466Z,100903.27
2022-07-27T12:49:34.834Z,100906.38
2022-07-27T12:52:11.277Z,100903.20
2022-07-27T12:54:43.116Z,100907.33
2022-07-27T12:57:20.980Z,100913.70
2022-07-27T13:00:07.976Z,100915.89
2022-07-27T13:02:40.295Z,100915.58
2022-07-27T13:05:14.700Z,100912.25
2022-07-27T13:07:47.854Z,100905.70
2022-07-27T13:10:20.305Z,100909.84
2022-07-27T13:12:52.803Z,100906.83
2022-07-27T13:15:24.613Z,100904.88
2022-07-27T13:17:56.477Z,100906.39
2022-07-27T13:20:28.583Z,100906.11
2022-07-27T13:23:00.420Z,100910.09
2022-07-27T13:25:32.209Z,100907.44
2022-07-27T13:28:04.457Z,100911.58
2022-07-27T13:30:36.310Z,100910.70
2022-07-27T13:33:08.474Z,100912.11
2022-07-27T13:35:40.345Z,100910.02
2022-07-27T13:38:16.451Z,100908.27
2022-07-27T13:40:49.034Z,100904.70
2022-07-27T13:43:20.795Z,100910.38
2022-07-27T13:45:52.609Z,100907.77
2022-07-27T13:48:24.443Z,100905.30
2022-07-27T13:50:56.320Z,100904.28
2022-07-27T13:53:28.235Z,100909.70
2022-07-27T13:56:01.566Z,100914.71
2022-07-27T13:58:34.503Z,100909.51
2022-07-27T14:01:07.792Z,100910.06
2022-07-27T14:03:39.812Z,100903.67
2022-07-27T14:06:11.601Z,100903.77
2022-07-27T14:08:43.442Z,100906.70
2022-07-27T14:11:16.606Z,100906.05
2022-07-27T14:13:48.575Z,100909.21
2022-07-27T14:16:20.690Z,100906.59
2022-07-27T14:18:53.100Z,100908.77
2022-07-27T14:21:24.916Z,100906.15
2022-07-27T14:23:56.829Z,100906.51
2022-07-27T14:26:29.244Z,100902.08
2022-07-27T14:29:01.070Z,100902.17
2022-07-27T14:31:35.070Z,100906.98
2022-07-27T14:34:07.012Z,100904.77
2022-07-27T14:36:38.814Z,100910.20
2022-07-27T14:39:10.927Z,100906.98
2022-07-27T14:41:44.534Z,100903.41
2022-07-27T14:44:18.780Z,100907.14
2022-07-27T14:46:51.044Z,100911.16
2022-07-27T14:49:23.362Z,100909.20
2022-07-27T14:51:55.389Z,100908.25
2022-07-27T14:54:27.247Z,100906.98
2022-07-27T14:56:59.077Z,100902.67
2022-07-27T14:59:30.996Z,100899.60
2022-07-27T15:02:03.112Z,100899.48
2022-07-27T15:04:35.318Z,100902.84
2022-07-27T15:07:07.142Z,100906.81
2022-07-27T15:09:38.948Z,100909.75
2022-07-27T15:12:11.694Z,100910.52
2022-07-27T15:14:43.843Z,100905.85
2022-07-27T15:17:15.731Z,100906.20
2022-07-27T15:19:47.793Z,100911.46
2022-07-27T15:22:19.736Z,100913.23
2022-07-27T15:24:52.742Z,100917.30
2022-07-27T15:27:24.620Z,100917.44
2022-07-27T15:29:56.594Z,100917.67
2022-07-27T15:32:28.557Z,100918.35
2022-07-27T15:35:02.080Z,100918.75
2022-07-27T15:37:33.988Z,100921.24
2022-07-27T15:40:25.573Z,100923.70
2022-07-27T15:42:57.417Z,100927.14
2022-07-27T15:45:29.433Z,100934.57
2022-07-27T15:48:01.299Z,100924.44
2022-07-27T15:50:33.187Z,100920.81
2022-07-27T15:53:08.720Z,100919.92
2022-07-27T15:55:40.613Z,100923.35
2022-07-27T15:58:18.037Z,100925.14
2022-07-27T16:00:55.975Z,100927.27
2022-07-27T16:03:30.091Z,100932.05
2022-07-27T16:06:02.152Z,100934.38
2022-07-27T16:08:34.118Z,100933.93
2022-07-27T16:11:05.928Z,100935.52
2022-07-27T16:13:38.898Z,100930.02
2022-07-27T16:16:24.945Z,100931.12
2022-07-27T16:18:58.025Z,100932.48
2022-07-27T16:21:31.403Z,100932.15
2022-07-27T16:24:23.383Z,100937.65
2022-07-27T16:26:55.331Z,100937.11
2022-07-27T16:29:28.451Z,100939.67
2022-07-27T16:32:00.452Z,100933.68
2022-07-27T16:34:33.628Z,100940.10
2022-07-27T16:37:05.682Z,100936.20
2022-07-27T16:39:38.024Z,100933.39
2022-07-27T16:42:10.189Z,100936.23
2022-07-27T16:44:42.494Z,100935.75
2022-07-27T16:47:14.357Z,100938.55
2022-07-27T16:49:46.255Z,100940.38
2022-07-27T16:52:18.151Z,100939.15
2022-07-27T16:54:49.930Z,100941.84
2022-07-27T16:57:23.833Z,100942.27
2022-07-27T16:59:55.867Z,100940.95
2022-07-27T17:02:30.309Z,100939.29
2022-07-27T17:05:02.631Z,100942.70
2022-07-27T17:07:34.453Z,100942.11
2022-07-27T17:10:07.016Z,100943.96
2022-07-27T17:12:39.481Z,100943.66
2022-07-27T17:15:12.482Z,100941.48
2022-07-27T17:17:44.344Z,100941.15
2022-07-27T17:20:16.241Z,100943.29
2022-07-27T17:23:00.085Z,100944.88
2022-07-27T17:25:32.217Z,100943.97
2022-07-27T17:28:04.643Z,100946.75
2022-07-27T17:30:38.357Z,100954.45
2022-07-27T17:33:10.395Z,100952.91
2022-07-27T17:35:42.250Z,100956.28
2022-07-27T17:38:18.470Z,100955.52
2022-07-27T17:40:51.508Z,100962.77
2022-07-27T17:43:23.364Z,100971.20
2022-07-27T17:45:55.210Z,100974.37
2022-07-27T17:48:27.147Z,100977.08
2022-07-27T17:50:58.973Z,100978.45
2022-07-27T17:53:30.932Z,100979.07
2022-07-27T17:56:04.669Z,100979.67
2022-07-27T17:58:36.638Z,100978.65
2022-07-27T18:01:09.322Z,100981.27
2022-07-27T18:03:41.885Z,100983.86
2022-07-27T18:06:13.787Z,100983.42
2022-07-27T18:08:46.753Z,100989.14
2022-07-27T18:11:19.804Z,100991.13
2022-07-27T18:13:51.655Z,100990.14
2022-07-27T18:16:23.583Z,100994.02
2022-07-27T18:18:56.126Z,100991.95
2022-07-27T18:21:28.115Z,100994.38
2022-07-27T18:24:00.179Z,101001.13
2022-07-27T18:26:32.241Z,101004.09
2022-07-27T18:29:04.095Z,101004.34
2022-07-27T18:31:36.251Z,101010.23
2022-07-27T18:34:12.767Z,101009.39
2022-07-27T18:36:47.122Z,101013.26
2022-07-27T18:39:19.063Z,101015.60
2022-07-27T18:41:52.682Z,101021.98
2022-07-27T18:44:24.597Z,101024.47
2022-07-27T18:46:56.542Z,101030.79
2022-07-27T18:49:28.420Z,101035.71
2022-07-27T18:52:00.382Z,101044.30
2022-07-27T18:54:32.262Z,101051.33
2022-07-27T18:57:04.211Z,101057.80
2022-07-27T18:59:40.891Z,101061.62
2022-07-27T19:02:13.550Z,101065.64
2022-07-27T19:04:45.810Z,101070.39
2022-07-27T19:07:18.072Z,101072.16
2022-07-27T19:09:52.391Z,101076.83
2022-07-27T19:12:24.306Z,101078.83
2022-07-27T19:14:57.945Z,101079.35
2022-07-27T19:17:29.829Z,101076.54
2022-07-27T19:20:01.649Z,101079.73
2022-07-27T19:22:33.920Z,101079.39
2022-07-27T19:25:08.038Z,101081.41
2022-07-27T19:27:39.991Z,101086.84
2022-07-27T19:30:13.615Z,101090.73
2022-07-27T19:32:45.487Z,101097.38
2022-07-27T19:35:17.353Z,101097.73
2022-07-27T19:37:49.175Z,101100.73
2022-07-27T19:43:17.411Z,101108.27
2022-07-27T19:45:52.187Z,101109.86
2022-07-27T19:48:24.882Z,101111.27
2022-07-27T19:51:02.132Z,101112.30
2022-07-27T19:53:40.460Z,101109.30
2022-07-27T19:56:16.336Z,101111.58
2022-07-27T19:58:48.291Z,101110.55
2022-07-27T20:01:20.243Z,101116.05
2022-07-27T20:03:55.058Z,101115.40
2022-07-27T20:06:27.989Z,101115.74
2022-07-27T20:09:00.413Z,101117.85
2022-07-27T20:11:33.745Z,101115.95
2022-07-27T20:14:05.626Z,101119.71
2022-07-27T20:16:38.946Z,101118.64
2022-07-27T20:19:11.269Z,101119.32
2022-07-27T20:21:43.494Z,101122.84
2022-07-27T20:24:15.499Z,101122.48
2022-07-27T20:26:49.254Z,101121.29
2022-07-27T20:29:21.361Z,101122.12
2022-07-27T20:31:55.696Z,101127.63
2022-07-27T20:34:27.963Z,101129.41
2022-07-27T20:37:00.617Z,101131.33
2022-07-27T20:39:33.201Z,101131.25
2022-07-27T20:42:05.045Z,101132.80
2022-07-27T20:44:36.974Z,101130.95
2022-07-27T20:47:09.056Z,101133.23
2022-07-27T20:49:41.914Z,101136.65
2022-07-27T20:52:13.837Z,101141.17
2022-07-27T20:54:45.814Z,101142.30
2022-07-27T20:57:18.725Z,101145.27
2022-07-27T20:59:50.582Z,101147.30
2022-07-27T21:02:22.452Z,101149.19
2022-07-27T21:04:55.072Z,101151.24
2022-07-27T21:07:29.474Z,101151.55
2022-07-27T21:10:01.294Z,101160.85
2022-07-27T21:12:33.169Z,101165.24
2022-07-27T21:15:09.802Z,101169.20
2022-07-27T21:17:45.234Z,101172.67
2022-07-27T21:20:17.024Z,101177.38
2022-07-27T21:23:09.106Z,101182.34
2022-07-27T21:25:43.840Z,101181.50
2022-07-27T21:28:18.291Z,101183.93
2022-07-27T21:30:50.648Z,101184.65
2022-07-27T21:33:22.506Z,101183.91
2022-07-27T21:35:54.353Z,101187.61
2022-07-27T21:38:26.204Z,101189.87
2022-07-27T21:40:58.057Z,101190.48
2022-07-27T21:43:29.943Z,101193.98
2022-07-27T21:46:01.958Z,101195.70
2022-07-27T21:48:34.042Z,101196.33
2022-07-27T21:51:05.950Z,101194.14
2022-07-27T21:53:37.866Z,101199.88
2022-07-27T21:56:09.680Z,101200.88
2022-07-27T21:58:44.501Z,101204.74
2022-07-27T22:01:17.576Z,101214.30
2022-07-27T22:03:49.836Z,101216.41
2022-07-27T22:06:24.528Z,101215.88
2022-07-27T22:08:56.337Z,101215.90
2022-07-27T22:11:28.302Z,101218.14
2022-07-27T22:14:00.248Z,101220.79
2022-07-27T22:16:32.288Z,101218.23
2022-07-27T22:31:22.123Z,101217.23
2022-07-27T22:33:51.727Z,101216.77
2022-07-27T22:36:20.151Z,101225.02
2022-07-27T22:38:48.619Z,101226.52
2022-07-27T22:41:17.043Z,101229.96
2022-07-27T22:43:46.063Z,101229.25
2022-07-27T22:46:14.617Z,101233.08
2022-07-27T22:48:43.381Z,101234.85
2022-07-27T22:51:13.025Z,101236.20
2022-07-27T22:54:09.604Z,101239.69
2022-07-27T22:56:38.026Z,101240.92
2022-07-27T22:59:06.462Z,101242.00
2022-07-27T23:01:45.465Z,101245.06
2022-07-27T23:04:16.668Z,101246.33
2022-07-27T23:06:46.564Z,101244.19
2022-07-27T23:09:17.360Z,101243.45
2022-07-27T23:11:45.840Z,101245.13
2022-07-27T23:14:14.678Z,101251.94
2022-07-27T23:16:44.095Z,101252.55
2022-07-27T23:19:15.457Z,101257.29
2022-07-27T23:21:43.845Z,101258.24
2022-07-27T23:24:13.518Z,101257.56
2022-07-27T23:26:43.187Z,101259.64
2022-07-27T23:29:11.728Z,101261.73
2022-07-27T23:31:40.508Z,101265.08
2022-07-27T23:34:09.074Z,101265.41
2022-07-27T23:36:41.400Z,101269.11
2022-07-27T23:39:09.857Z,101266.32
2022-07-27T23:41:38.245Z,101270.73
2022-07-27T23:44:06.683Z,101281.88
2022-07-27T23:46:35.146Z,101281.89
2022-07-27T23:49:03.693Z,101287.19
2022-07-27T23:51:32.178Z,101283.16
